createdAt,value
2022-08-26T00:03:35.656Z,23.80
2022-08-26T00:07:36.731Z,23.60
2022-08-26T00:11:38.310Z,23.50
2022-08-26T00:15:40.079Z,23.40
2022-08-26T00:19:40.991Z,23.50
2022-08-26T00:23:43.118Z,23.40
2022-08-26T00:27:44.719Z,23.40
2022-08-26T00:31:45.828Z,23.30
2022-08-26T00:35:47.358Z,22.90
2022-08-26T00:39:48.455Z,22.80
2022-08-26T00:43:50.766Z,23.30
2022-08-26T00:47:58.794Z,23.40
2022-08-26T00:52:03.617Z,23.30
2022-08-26T00:56:10.402Z,23.00
2022-08-26T01:04:38.617Z,22.90
2022-08-26T01:08:40.616Z,22.70
2022-08-26T01:12:51.653Z,22.90
2022-08-26T01:16:52.652Z,22.80
2022-08-26T01:21:18.423Z,22.40
2022-08-26T01:25:20.875Z,22.00
2022-08-26T01:29:23.558Z,22.20
2022-08-26T01:33:45.184Z,22.70
2022-08-26T01:37:49.287Z,22.90
2022-08-26T01:41:54.013Z,22.80
2022-08-26T01:45:56.311Z,22.60
2022-08-26T01:50:01.038Z,22.60
2022-08-26T01:54:06.711Z,22.60
2022-08-26T01:58:22.052Z,22.50
2022-08-26T02:02:23.453Z,21.90
2022-08-26T02:06:25.889Z,21.60
2022-08-26T02:10:27.519Z,22.30
2022-08-26T02:14:31.937Z,22.40
2022-08-26T02:18:36.180Z,22.30
2022-08-26T02:22:37.829Z,22.20
2022-08-26T02:26:40.039Z,22.20
2022-08-26T02:30:41.295Z,22.10
2022-08-26T02:34:42.407Z,22.00
2022-08-26T02:38:43.318Z,21.90
2022-08-26T02:42:44.486Z,21.70
2022-08-26T02:46:47.070Z,21.80
2022-08-26T02:50:48.704Z,21.80
2022-08-26T02:54:49.749Z,21.80
2022-08-26T02:58:51.092Z,21.60
2022-08-26T03:02:54.194Z,21.20
2022-08-26T03:06:55.934Z,21.10
2022-08-26T03:10:56.899Z,21.60
2022-08-26T03:14:57.792Z,21.20
2022-08-26T03:19:01.717Z,21.00
2022-08-26T03:23:02.727Z,20.40
2022-08-26T03:27:07.449Z,21.50
2022-08-26T03:31:08.517Z,21.70
2022-08-26T03:35:10.061Z,21.80
2022-08-26T03:39:12.472Z,21.80
2022-08-26T03:43:16.663Z,20.30
2022-08-26T03:47:18.380Z,19.70
2022-08-26T03:51:19.478Z,21.20
2022-08-26T03:55:26.997Z,21.60
2022-08-26T03:59:28.567Z,21.60
2022-08-26T04:03:48.691Z,21.30
2022-08-26T04:07:51.204Z,21.50
2022-08-26T04:11:52.900Z,21.40
2022-08-26T04:15:53.886Z,21.50
2022-08-26T04:19:54.978Z,21.50
2022-08-26T04:23:56.000Z,21.40
2022-08-26T04:27:58.805Z,21.40
2022-08-26T04:31:59.734Z,21.50
2022-08-26T04:36:04.840Z,21.50
2022-08-26T04:40:08.733Z,21.30
2022-08-26T04:44:10.301Z,19.80
2022-08-26T04:48:11.318Z,20.00
2022-08-26T04:52:12.348Z,19.30
2022-08-26T04:56:13.737Z,20.00
2022-08-26T05:00:14.999Z,21.20
2022-08-26T05:04:18.910Z,21.60
2022-08-26T05:08:22.053Z,21.80
2022-08-26T05:12:23.868Z,22.00
2022-08-26T05:16:24.922Z,22.10
2022-08-26T05:20:26.286Z,22.20
2022-08-26T05:24:28.114Z,22.30
2022-08-26T05:28:29.943Z,22.30
2022-08-26T05:32:31.351Z,22.40
2022-08-26T05:36:34.081Z,22.60
2022-08-26T05:40:40.138Z,22.60
2022-08-26T05:44:54.121Z,22.80
2022-08-26T05:48:44.615Z,22.80
2022-08-26T05:52:45.608Z,22.60
2022-08-26T05:56:46.605Z,22.30
2022-08-26T06:00:56.657Z,22.90
2022-08-26T06:04:57.690Z,23.90
2022-08-26T06:09:01.173Z,24.20
2022-08-26T06:13:09.417Z,24.60
2022-08-26T06:17:04.894Z,24.50
2022-08-26T06:21:23.912Z,24.40
2022-08-26T06:25:40.033Z,24.80
2022-08-26T06:29:41.133Z,24.50
2022-08-26T06:33:43.533Z,24.60
2022-08-26T06:37:44.534Z,25.10
2022-08-26T06:41:46.275Z,24.90
2022-08-26T06:45:47.560Z,25.00
2022-08-26T06:49:49.477Z,25.40
2022-08-26T06:53:53.398Z,24.50
2022-08-26T06:57:55.812Z,24.80
2022-08-26T07:01:56.883Z,25.40
2022-08-26T07:06:02.921Z,25.80
2022-08-26T07:10:07.942Z,26.30
2022-08-26T07:14:09.269Z,27.20
2022-08-26T07:18:10.528Z,27.20
2022-08-26T07:22:12.514Z,27.30
2022-08-26T07:26:17.550Z,27.60
2022-08-26T07:30:18.743Z,27.00
2022-08-26T07:34:20.061Z,27.40
2022-08-26T07:38:21.298Z,27.50
2022-08-26T07:42:22.400Z,28.10
2022-08-26T07:46:27.174Z,28.10
2022-08-26T07:50:48.955Z,28.60
2022-08-26T07:54:31.218Z,28.30
2022-08-26T07:58:32.422Z,27.60
2022-08-26T08:02:33.553Z,28.20
2022-08-26T08:06:36.986Z,28.70
2022-08-26T08:10:38.583Z,27.20
2022-08-26T08:14:39.857Z,28.20
2022-08-26T08:18:41.273Z,29.50
2022-08-26T08:22:43.645Z,29.90
2022-08-26T08:26:45.549Z,31.00
2022-08-26T08:30:46.712Z,30.00
2022-08-26T08:34:47.964Z,29.10
2022-08-26T08:38:49.301Z,28.70
2022-08-26T08:43:08.999Z,28.20
2022-08-26T08:47:17.063Z,29.20
2022-08-26T08:51:28.292Z,28.80
2022-08-26T08:55:33.903Z,29.40
2022-08-26T08:59:38.281Z,30.10
2022-08-26T09:03:55.789Z,29.90
2022-08-26T09:08:08.064Z,30.30
2022-08-26T09:16:54.984Z,30.40
2022-08-26T09:20:59.393Z,31.20
2022-08-26T09:25:01.447Z,31.70
2022-08-26T09:29:10.249Z,30.40
2022-08-26T09:33:15.330Z,30.70
2022-08-26T09:37:38.485Z,30.80
2022-08-26T09:41:40.346Z,29.60
2022-08-26T09:45:50.767Z,31.10
2022-08-26T09:50:09.673Z,30.80
2022-08-26T09:54:12.939Z,31.10
2022-08-26T09:58:34.906Z,30.10
2022-08-26T10:02:41.035Z,31.50
2022-08-26T10:06:56.636Z,31.50
2022-08-26T10:11:02.533Z,29.80
2022-08-26T10:15:08.549Z,30.90
2022-08-26T10:19:13.526Z,30.30
2022-08-26T10:23:19.746Z,30.20
2022-08-26T10:27:29.564Z,29.90
2022-08-26T10:31:43.740Z,29.50
2022-08-26T10:35:51.315Z,30.60
2022-08-26T10:39:57.084Z,30.20
2022-08-26T10:44:00.854Z,30.20
2022-08-26T10:48:08.490Z,29.60
2022-08-26T10:52:22.333Z,29.50
2022-08-26T10:56:36.277Z,29.70
2022-08-26T11:00:59.850Z,29.20
2022-08-26T11:05:22.955Z,30.40
2022-08-26T11:09:47.503Z,30.60
2022-08-26T11:14:02.631Z,32.50
2022-08-26T11:18:08.978Z,33.10
2022-08-26T11:22:30.417Z,33.60
2022-08-26T11:26:56.265Z,33.70
2022-08-26T11:30:42.116Z,32.70
2022-08-26T11:34:58.776Z,33.50
2022-08-26T11:39:02.723Z,33.40
2022-08-26T11:43:19.968Z,32.50
2022-08-26T11:47:29.921Z,33.50
2022-08-26T11:51:31.927Z,33.30
2022-08-26T11:55:37.137Z,33.90
2022-08-26T11:59:41.405Z,34.40
2022-08-26T12:03:48.998Z,33.80
2022-08-26T12:07:51.094Z,35.40
2022-08-26T12:12:12.860Z,35.10
2022-08-26T12:16:18.216Z,32.90
2022-08-26T12:20:46.012Z,35.20
2022-08-26T12:24:53.292Z,36.00
2022-08-26T12:29:01.883Z,35.40
2022-08-26T12:33:22.089Z,34.90
2022-08-26T12:37:13.337Z,33.40
2022-08-26T12:41:38.944Z,33.80
2022-08-26T12:45:43.651Z,33.70
2022-08-26T12:49:45.191Z,32.90
2022-08-26T12:53:46.500Z,33.30
2022-08-26T12:57:47.487Z,33.20
2022-08-26T13:01:50.173Z,33.80
2022-08-26T13:05:51.310Z,32.70
2022-08-26T13:09:57.813Z,28.40
2022-08-26T13:14:10.643Z,29.60
2022-08-26T13:18:12.055Z,28.60
2022-08-26T13:22:15.451Z,28.30
2022-08-26T13:26:17.640Z,24.20
2022-08-26T13:30:19.244Z,22.10
2022-08-26T13:34:22.055Z,21.30
2022-08-26T13:38:33.301Z,20.20
2022-08-26T13:42:26.185Z,20.00
2022-08-26T13:46:28.208Z,20.50
2022-08-26T13:50:29.641Z,21.00
2022-08-26T13:54:30.652Z,20.10
2022-08-26T13:58:31.708Z,19.80
2022-08-26T14:02:32.817Z,19.70
2022-08-26T14:06:33.946Z,20.00
2022-08-26T14:10:35.311Z,20.30
2022-08-26T14:14:36.235Z,20.70
2022-08-26T14:18:41.877Z,21.10
2022-08-26T14:22:52.133Z,21.40
2022-08-26T14:26:47.931Z,21.60
2022-08-26T14:30:52.900Z,21.70
2022-08-26T14:34:55.078Z,21.80
2022-08-26T14:39:00.207Z,22.20
2022-08-26T14:43:01.905Z,22.90
2022-08-26T14:47:06.101Z,23.80
2022-08-26T14:51:07.260Z,24.50
2022-08-26T14:55:09.233Z,23.40
2022-08-26T14:59:10.836Z,22.90
2022-08-26T15:07:14.263Z,23.70
2022-08-26T15:11:17.380Z,24.00
2022-08-26T15:15:18.841Z,24.90
2022-08-26T15:19:21.060Z,24.10
2022-08-26T15:23:22.166Z,24.70
2022-08-26T15:27:23.969Z,25.00
2022-08-26T15:31:29.341Z,24.70
2022-08-26T15:35:30.448Z,25.00
2022-08-26T15:39:34.001Z,25.80
2022-08-26T15:43:37.009Z,26.90
2022-08-26T15:47:55.330Z,25.30
2022-08-26T15:51:45.259Z,25.60
2022-08-26T15:55:45.192Z,26.40
2022-08-26T15:59:46.357Z,25.90
2022-08-26T16:03:48.080Z,26.00
2022-08-26T16:07:49.303Z,26.40
2022-08-26T16:11:50.630Z,26.90
2022-08-26T16:15:53.225Z,27.60
2022-08-26T16:19:54.312Z,27.50
2022-08-26T16:23:56.750Z,27.60
2022-08-26T16:27:58.578Z,28.10
2022-08-26T16:32:00.198Z,27.90
2022-08-26T16:36:01.585Z,26.70
2022-08-26T16:40:04.480Z,27.20
2022-08-26T16:44:07.185Z,25.80
2022-08-26T16:48:09.221Z,25.50
2022-08-26T16:52:11.221Z,25.00
2022-08-26T16:56:16.043Z,24.90
2022-08-26T17:00:20.973Z,25.10
2022-08-26T17:04:22.577Z,25.00
2022-08-26T17:08:28.528Z,24.60
2022-08-26T17:12:27.845Z,24.40
2022-08-26T17:16:29.048Z,24.60
2022-08-26T17:20:30.126Z,24.50
2022-08-26T17:24:33.760Z,24.40
2022-08-26T17:28:35.116Z,24.20
2022-08-26T17:32:36.647Z,24.50
2022-08-26T17:36:37.785Z,24.40
2022-08-26T17:40:39.033Z,24.00
2022-08-26T17:44:40.578Z,23.80
2022-08-26T17:48:41.811Z,23.70
2022-08-26T17:52:44.354Z,24.00
2022-08-26T17:56:47.612Z,24.40
2022-08-26T18:00:51.763Z,24.00
2022-08-26T18:04:52.958Z,24.60
2022-08-26T18:08:54.401Z,24.90
2022-08-26T18:12:55.632Z,24.40
2022-08-26T18:16:56.783Z,24.30
2022-08-26T18:21:01.479Z,24.70
2022-08-26T18:25:04.788Z,23.60
2022-08-26T18:29:07.408Z,24.30
2022-08-26T18:33:10.002Z,24.40
2022-08-26T18:41:14.509Z,23.00
2022-08-26T18:45:16.243Z,23.10
2022-08-26T18:49:20.462Z,23.10
2022-08-26T18:53:21.705Z,22.90
2022-08-26T18:57:23.042Z,22.90
2022-08-26T19:01:27.356Z,23.20
2022-08-26T19:05:27.267Z,22.90
2022-08-26T19:09:30.275Z,23.00
2022-08-26T19:13:31.407Z,23.10
2022-08-26T19:17:32.540Z,23.80
2022-08-26T19:21:36.091Z,23.50
2022-08-26T19:25:46.508Z,23.80
2022-08-26T19:29:47.817Z,24.80
2022-08-26T19:33:49.587Z,24.90
2022-08-26T19:37:50.714Z,24.90
2022-08-26T19:41:51.806Z,24.40
2022-08-26T19:45:52.980Z,24.20
2022-08-26T19:49:54.875Z,24.00
2022-08-26T19:53:58.439Z,24.40
2022-08-26T19:57:59.545Z,23.80
2022-08-26T20:02:01.930Z,24.30
2022-08-26T20:06:05.729Z,24.50
2022-08-26T20:10:09.284Z,23.90
2022-08-26T20:14:10.681Z,24.20
2022-08-26T20:18:30.368Z,24.40
2022-08-26T20:22:32.718Z,24.40
2022-08-26T20:26:36.939Z,24.60
2022-08-26T20:30:39.049Z,24.80
2022-08-26T20:34:40.195Z,24.00
2022-08-26T20:38:41.638Z,24.40
2022-08-26T20:42:42.989Z,24.20
2022-08-26T20:46:44.537Z,24.60
2022-08-26T20:50:45.888Z,24.50
2022-08-26T20:54:47.048Z,24.10
2022-08-26T20:58:48.191Z,24.30
2022-08-26T21:02:50.067Z,24.00
2022-08-26T21:06:53.807Z,23.60
2022-08-26T21:10:55.682Z,24.10
2022-08-26T21:14:57.269Z,24.20
2022-08-26T21:18:58.423Z,24.00
2022-08-26T21:23:01.419Z,23.20
2022-08-26T21:27:02.559Z,23.10
2022-08-26T21:31:06.836Z,23.70
2022-08-26T21:35:08.999Z,23.10
2022-08-26T21:39:12.085Z,23.70
2022-08-26T21:43:17.854Z,23.30
2022-08-26T21:47:17.098Z,23.90
2022-08-26T21:51:20.510Z,24.10
2022-08-26T21:55:21.604Z,23.60
2022-08-26T21:59:22.713Z,23.40
2022-08-26T22:03:24.243Z,23.50
2022-08-26T22:07:25.548Z,23.40
2022-08-26T22:11:28.068Z,23.20
2022-08-26T22:15:30.973Z,23.10
2022-08-26T22:19:32.068Z,22.70
2022-08-26T22:23:37.344Z,23.30
2022-08-26T22:27:40.513Z,23.50
2022-08-26T22:31:41.309Z,23.30
2022-08-26T22:35:45.498Z,23.30
2022-08-26T22:39:46.503Z,23.20
2022-08-26T22:43:47.413Z,22.90
2022-08-26T22:47:48.504Z,23.10
2022-08-26T22:51:50.199Z,23.30
2022-08-26T22:55:51.240Z,23.60
2022-08-26T22:59:52.355Z,23.60
2022-08-26T23:03:53.353Z,23.30
2022-08-26T23:07:56.061Z,22.60
2022-08-26T23:11:57.563Z,23.20
2022-08-26T23:16:00.367Z,23.30
2022-08-26T23:20:05.085Z,23.20
2022-08-26T23:24:07.235Z,23.00
2022-08-26T23:28:08.580Z,23.10
2022-08-26T23:32:09.957Z,22.80
2022-08-26T23:36:15.790Z,23.30
2022-08-26T23:40:31.547Z,23.10
2022-08-26T23:44:33.737Z,22.70
2022-08-26T23:48:34.633Z,23.00
2022-08-26T23:52:54.152Z,22.90
2022-08-26T23:56:55.156Z,23.30
